In Rescue
 
Open Full Screen Window  High Contrast Mode
Wind Gusting 00 knots
08
March 19, 2019 6:48 PM EDT
Weather Information
Wind Direction
  210 °
Wind Speed
  08 kt (9 mph)
Wind Gust
  00 kt (0 mph)
Altimeter
30.23 in
Visibility
10 SM
Temperature
06° C
43° F
Dewpoint
-05° C
23° F
Humidity
46%
Sky Condition
Clear
VFR

METAR KFKS 192248Z AUTO 21008KT 10SM CLR 06/M05 A3023 RMK AO2 T00551047

FAA Disclaimer: The data displayed is for advisory purposes only and is not to be used for flight planning or operations.